Time;durP1;ratioP1;P1;durP2;ratioP2;P2;SDS_P1;SDS_P2;PMS_P1;PMS_P2;Temp;Humidity;BMP_temperature;BMP_pressure;BME280_temperature;BME280_humidity;BME280_pressure;Samples;Min_cycle;Max_cycle;Signal;HPM_P1;HPM_P2
2023/03/01 00:00:20;;;;;;;2.92;2.28;;;;;;;;;;5011837;28;20061;-41
2023/03/01 00:02:47;;;;;;;2.40;2.20;;;;;;;;;;5011946;28;20053;-42
2023/03/01 00:05:14;;;;;;;2.97;2.40;;;;;;;;;;5011767;28;20050;-42
2023/03/01 00:07:42;;;;;;;3.30;2.40;;;17.70;50.90;;;;;;5012082;28;20046;-42
2023/03/01 00:10:10;;;;;;;3.25;2.30;;;;;;;;;;5011802;28;20506;-41
2023/03/01 00:12:37;;;;;;;3.15;2.60;;;;;;;;;;5011081;28;20402;-41
2023/03/01 00:15:05;;;;;;;2.83;2.22;;;;;;;;;;5007937;28;20505;-41
2023/03/01 00:17:33;;;;;;;2.50;2.28;;;;;;;;;;5011773;28;20072;-41
2023/03/01 00:20:00;;;;;;;2.70;2.30;;;;;;;;;;5011714;28;20053;-41
2023/03/01 00:22:28;;;;;;;2.88;2.30;;;;;;;;;;5011192;28;20052;-42
2023/03/01 00:24:56;;;;;;;2.75;2.45;;;17.50;49.30;;;;;;5011080;28;20073;-41
2023/03/01 00:27:24;;;;;;;4.00;2.38;;;;;;;;;;5011616;28;20089;-42
2023/03/01 00:29:51;;;;;;;3.40;2.65;;;;;;;;;;5011732;28;20050;-42
2023/03/01 00:32:18;;;;;;;3.20;2.50;;;;;;;;;;5011151;28;20050;-43
2023/03/01 00:34:53;;;;;;;2.78;2.33;;;;;;;;;;5011924;28;20050;-42
2023/03/01 00:37:21;;;;;;;4.20;2.35;;;;;;;;;;5010904;28;20427;-42
2023/03/01 00:39:48;;;;;;;3.53;2.90;;;;;;;;;;5011859;28;20054;-42
2023/03/01 00:42:16;;;;;;;3.03;2.45;;;;;;;;;;5011271;28;20050;-42
2023/03/01 00:44:43;;;;;;;3.13;2.72;;;;;;;;;;5011510;28;20052;-41
2023/03/01 00:47:10;;;;;;;2.70;2.38;;;;;;;;;;5011355;28;20414;-42
2023/03/01 00:49:37;;;;;;;2.63;2.17;;;;;;;;;;5012664;28;20052;-42
2023/03/01 00:52:05;;;;;;;4.00;2.63;;;;;;;;;;5015068;28;20052;-41
2023/03/01 00:54:32;;;;;;;2.78;2.30;;;;;;;;;;5014619;28;20054;-42
2023/03/01 00:56:59;;;;;;;3.45;2.33;;;;;;;;;;5014784;28;20050;-42
2023/03/01 00:59:27;;;;;;;2.78;2.40;;;17.20;51.40;;;;;;5014756;28;20070;-41
2023/03/01 01:01:54;;;;;;;3.92;2.58;;;;;;;;;;5014997;28;20060;-41
2023/03/01 01:04:21;;;;;;;4.05;2.72;;;;;;;;;;5014655;28;20050;-42
2023/03/01 01:06:48;;;;;;;3.33;2.50;;;;;;;;;;5014354;28;20049;-42
2023/03/01 01:09:17;;;;;;;3.10;2.40;;;;;;;;;;5014489;28;20045;-42
2023/03/01 01:11:44;;;;;;;3.17;2.50;;;;;;;;;;5014642;28;20058;-42
2023/03/01 01:14:11;;;;;;;3.25;2.50;;;;;;;;;;5014614;28;20058;-42
2023/03/01 01:16:40;;;;;;;3.22;2.47;;;;;;;;;;5014559;28;20046;-42
2023/03/01 01:19:07;;;;;;;2.88;2.50;;;;;;;;;;5014682;28;20076;-42
2023/03/01 01:21:34;;;;;;;2.70;2.40;;;;;;;;;;5014015;28;20137;-41
2023/03/01 01:24:01;;;;;;;3.08;2.50;;;;;;;;;;5014002;28;20046;-41
2023/03/01 01:26:28;;;;;;;3.15;2.28;;;;;;;;;;5014466;28;20052;-42
2023/03/01 01:28:55;;;;;;;3.30;2.47;;;;;;;;;;5014551;28;20054;-42
2023/03/01 01:31:24;;;;;;;3.70;2.42;;;;;;;;;;5014360;28;20050;-41
2023/03/01 01:33:53;;;;;;;3.40;2.53;;;;;;;;;;5014185;28;20050;-41
2023/03/01 01:36:20;;;;;;;3.22;2.60;;;;;;;;;;5013054;28;20046;-41
2023/03/01 01:38:47;;;;;;;3.00;2.53;;;;;;;;;;5014145;28;20058;-41
2023/03/01 01:41:15;;;;;;;2.97;2.25;;;;;;;;;;5014120;28;20046;-42
2023/03/01 01:43:43;;;;;;;3.00;2.42;;;16.80;51.90;;;;;;5013837;28;20053;-42
2023/03/01 01:46:15;;;;;;;2.90;2.30;;;16.80;52.00;;;;;;5014008;28;20046;-42
2023/03/01 01:48:43;;;;;;;2.40;2.10;;;;;;;;;;5013843;28;20052;-43
2023/03/01 01:51:13;;;;;;;2.95;2.58;;;16.60;52.20;;;;;;5013967;28;20046;-42
2023/03/01 01:53:40;;;;;;;2.92;2.45;;;;;;;;;;5013363;28;20054;-42
2023/03/01 01:56:08;;;;;;;3.33;2.50;;;;;;;;;;5013981;28;20077;-43
2023/03/01 01:58:35;;;;;;;3.35;2.40;;;;;;;;;;5013802;28;20148;-42
2023/03/01 02:01:02;;;;;;;2.90;2.38;;;;;;;;;;5013737;28;20050;-41
2023/03/01 02:03:33;;;;;;;3.10;2.50;;;16.60;52.30;;;;;;5013068;28;20654;-41
2023/03/01 02:06:01;;;;;;;2.80;2.50;;;;;;;;;;5013385;28;20050;-42
2023/03/01 02:08:30;;;;;;;2.55;2.30;;;;;;;;;;5013402;28;20050;-42
2023/03/01 02:10:59;;;;;;;2.95;2.40;;;;;;;;;;5013444;28;20634;-42
2023/03/01 02:13:26;;;;;;;2.92;2.47;;;;;;;;;;5013254;28;20454;-41
2023/03/01 02:15:53;;;;;;;3.40;2.83;;;;;;;;;;5013395;28;20052;-42
2023/03/01 02:18:21;;;;;;;3.10;2.33;;;;;;;;;;5012910;28;20056;-42
2023/03/01 02:20:53;;;;;;;3.28;2.65;;;16.60;51.80;;;;;;5013234;28;20478;-42
2023/03/01 02:23:20;;;;;;;3.72;2.63;;;;;;;;;;5013163;28;20049;-42
2023/03/01 02:25:51;;;;;;;3.60;2.60;;;16.50;52.60;;;;;;5013156;28;20057;-42
2023/03/01 02:28:27;;;;;;;2.92;2.55;;;16.50;53.00;;;;;;5013237;28;20050;-42
2023/03/01 02:33:39;;;;;;;2.90;2.35;;;;;;;;;;5012864;28;20046;-42
2023/03/01 02:36:06;;;;;;;3.47;2.50;;;;;;;;;;5012542;28;20104;-42
2023/03/01 02:38:33;;;;;;;3.00;2.40;;;;;;;;;;5013017;28;20050;-42
2023/03/01 02:41:00;;;;;;;3.20;2.50;;;;;;;;;;5012922;28;20045;-42
2023/03/01 02:43:30;;;;;;;2.92;2.53;;;;;;;;;;5012428;28;20053;-42
2023/03/01 02:45:58;;;;;;;3.00;2.70;;;;;;;;;;5013109;28;20053;-42
2023/03/01 02:48:26;;;;;;;2.95;2.42;;;;;;;;;;5012761;28;20050;-42
2023/03/01 02:51:01;;;;;;;3.80;2.70;;;;;;;;;;5012926;28;20045;-42
2023/03/01 02:53:29;;;;;;;3.78;2.70;;;;;;;;;;5012609;28;20054;-42
2023/03/01 02:55:56;;;;;;;2.65;2.40;;;;;;;;;;5012501;28;20046;-42
2023/03/01 02:58:23;;;;;;;3.88;2.55;;;;;;;;;;5012878;28;20075;-41
2023/03/01 03:00:52;;;;;;;2.85;2.42;;;16.70;51.80;;;;;;5011966;28;20506;-41
2023/03/01 03:03:19;;;;;;;2.83;2.40;;;;;;;;;;5012518;28;20045;-42
2023/03/01 03:05:46;;;;;;;4.32;2.78;;;;;;;;;;5012462;28;20046;-42
2023/03/01 03:08:14;;;;;;;3.78;2.45;;;;;;;;;;5012450;28;20053;-41
2023/03/01 03:10:42;;;;;;;3.33;2.60;;;;;;;;;;5012417;28;20076;-41
2023/03/01 03:13:10;;;;;;;3.35;2.90;;;;;;;;;;5011977;28;20088;-41
2023/03/01 03:15:38;;;;;;;3.40;2.70;;;;;;;;;;5012209;28;20511;-41
2023/03/01 03:18:07;;;;;;;3.95;2.80;;;16.70;52.50;;;;;;5012307;28;20057;-41
2023/03/01 03:20:34;;;;;;;3.33;2.70;;;;;;;;;;5012268;28;20517;-42
2023/03/01 03:23:01;;;;;;;3.60;3.00;;;;;;;;;;5012293;28;20061;-42
2023/03/01 03:25:29;;;;;;;3.00;2.55;;;;;;;;;;5012165;28;20470;-41
2023/03/01 03:27:57;;;;;;;3.10;2.60;;;;;;;;;;5012432;28;20056;-42
2023/03/01 03:30:25;;;;;;;3.13;2.58;;;;;;;;;;5011829;28;20499;-42
2023/03/01 03:32:52;;;;;;;3.13;2.45;;;;;;;;;;5012075;28;20164;-42
2023/03/01 03:35:21;;;;;;;4.47;3.10;;;16.80;52.20;;;;;;5012270;28;20049;-43
2023/03/01 03:38:03;;;;;;;4.10;2.72;;;;;;;;;;5011526;28;20056;-42
2023/03/01 03:40:31;;;;;;;3.10;2.50;;;16.80;50.10;;;;;;5012351;28;20054;-42
2023/03/01 03:42:58;;;;;;;2.70;2.30;;;;;;;;;;5011525;28;20402;-41
2023/03/01 03:45:25;;;;;;;3.45;2.80;;;;;;;;;;5011937;28;20495;-42
2023/03/01 03:47:52;;;;;;;3.92;2.78;;;;;;;;;;5012466;28;20050;-43
2023/03/01 03:50:19;;;;;;;3.22;2.70;;;;;;;;;;5011872;28;20056;-42
2023/03/01 03:52:47;;;;;;;3.47;2.58;;;17.00;52.30;;;;;;5012039;28;20053;-42
2023/03/01 03:55:19;;;;;;;3.70;2.88;;;;;;;;;;5011919;28;20049;-42
2023/03/01 03:57:51;;;;;;;3.53;2.80;;;;;;;;;;5007973;28;20406;-41
2023/03/01 04:00:19;;;;;;;3.05;2.72;;;;;;;;;;4992234;28;20058;-43
2023/03/01 04:02:46;;;;;;;3.50;2.85;;;;;;;;;;4992074;28;20057;-41
2023/03/01 04:05:14;;;;;;;4.05;2.72;;;;;;;;;;4992579;28;20046;-42
2023/03/01 04:07:41;;;;;;;3.08;2.63;;;;;;;;;;4991855;28;20053;-42
2023/03/01 04:10:10;;;;;;;4.72;3.05;;;;;;;;;;4992479;28;20069;-41
2023/03/01 04:12:37;;;;;;;3.28;2.78;;;;;;;;;;5003887;28;20049;-41
2023/03/01 04:15:12;;;;;;;3.10;2.70;;;;;;;;;;5011735;28;20082;-41
2023/03/01 04:17:39;;;;;;;3.10;2.60;;;;;;;;;;5011982;28;20081;-42
2023/03/01 04:20:08;;;;;;;4.13;2.70;;;17.10;52.00;;;;;;5012013;28;20056;-41
2023/03/01 04:22:35;;;;;;;4.53;2.78;;;;;;;;;;5011533;28;20410;-41
2023/03/01 04:25:02;;;;;;;3.40;2.60;;;;;;;;;;5013392;28;20410;-41
2023/03/01 04:27:31;;;;;;;3.30;2.60;;;;;;;;;;5015194;28;20053;-41
2023/03/01 04:29:58;;;;;;;3.00;2.60;;;;;;;;;;5015392;28;20054;-42
2023/03/01 04:32:25;;;;;;;3.13;2.70;;;;;;;;;;5015327;28;20054;-42
2023/03/01 04:34:52;;;;;;;3.40;2.67;;;;;;;;;;5015188;28;20045;-41
2023/03/01 04:37:19;;;;;;;3.45;2.70;;;;;;;;;;5015086;28;20071;-41
2023/03/01 04:39:47;;;;;;;2.88;2.40;;;;;;;;;;5015272;28;20410;-42
2023/03/01 04:42:14;;;;;;;2.95;2.60;;;;;;;;;;5014275;28;20128;-41
2023/03/01 04:44:43;;;;;;;3.60;2.65;;;;;;;;;;5015072;28;20445;-41
2023/03/01 04:47:10;;;;;;;4.85;2.70;;;;;;;;;;5015094;28;20046;-41
2023/03/01 04:49:37;;;;;;;3.47;2.83;;;;;;;;;;5015151;28;20046;-41
2023/03/01 04:52:04;;;;;;;2.90;2.60;;;;;;;;;;5014648;28;20133;-41
2023/03/01 04:54:31;;;;;;;3.85;2.65;;;;;;;;;;5006615;28;20128;-42
2023/03/01 04:56:58;;;;;;;3.60;3.05;;;;;;;;;;5014589;28;20045;-42
2023/03/01 04:59:25;;;;;;;2.95;2.50;;;;;;;;;;5015052;28;20046;-41
2023/03/01 05:01:55;;;;;;;2.90;2.58;;;17.00;51.90;;;;;;5014820;28;20128;-42
2023/03/01 05:04:22;;;;;;;2.90;2.60;;;;;;;;;;5014477;28;20100;-42
2023/03/01 05:06:49;;;;;;;3.13;2.47;;;;;;;;;;5014604;28;20042;-41
2023/03/01 05:09:16;;;;;;;3.88;2.85;;;;;;;;;;5014690;28;20060;-41
2023/03/01 05:11:43;;;;;;;3.00;2.65;;;;;;;;;;5014248;28;20064;-41
2023/03/01 05:14:10;;;;;;;3.00;2.70;;;;;;;;;;5014155;28;20056;-41
2023/03/01 05:16:37;;;;;;;4.90;2.50;;;;;;;;;;5014853;28;20052;-41
2023/03/01 05:19:11;;;;;;;3.45;2.70;;;17.00;50.10;;;;;;5014485;28;20061;-42
2023/03/01 05:22:01;;;;;;;3.88;2.70;;;;;;;;;;5014571;28;20545;-42
2023/03/01 05:24:25;;;;;;;3.20;2.90;;;;;;;;;;5013685;28;20494;-42
2023/03/01 05:26:52;;;;;;;3.22;2.72;;;;;;;;;;5013945;28;20483;-42
2023/03/01 05:29:24;;;;;;;3.88;3.00;;;;;;;;;;5014220;28;20487;-41
2023/03/01 05:31:52;;;;;;;3.22;2.50;;;;;;;;;;5014349;28;20061;-41
2023/03/01 05:34:22;;;;;;;3.17;2.72;;;;;;;;;;5013653;28;20050;-41
2023/03/01 05:36:52;;;;;;;3.45;2.80;;;;;;;;;;5013607;28;20116;-41
2023/03/01 05:39:19;;;;;;;2.80;2.45;;;;;;;;;;5014231;28;20053;-41
2023/03/01 05:41:48;;;;;;;3.15;2.75;;;;;;;;;;5014162;28;20090;-42
2023/03/01 05:44:15;;;;;;;4.38;2.70;;;;;;;;;;5013858;28;20045;-41
2023/03/01 05:46:43;;;;;;;3.10;2.80;;;;;;;;;;5013859;28;20104;-41
2023/03/01 05:49:10;;;;;;;3.17;2.60;;;;;;;;;;5013588;28;20100;-42
2023/03/01 05:51:38;;;;;;;2.83;2.42;;;;;;;;;;5014021;28;20050;-41
2023/03/01 05:54:06;;;;;;;3.45;2.60;;;;;;;;;;5013503;28;20068;-42
2023/03/01 05:56:34;;;;;;;4.53;2.50;;;;;;;;;;5013273;28;20073;-41
2023/03/01 05:59:01;;;;;;;3.90;2.95;;;;;;;;;;5013764;28;20514;-41
2023/03/01 06:01:29;;;;;;;3.28;2.83;;;;;;;;;;5013542;28;20065;-41
2023/03/01 06:03:56;;;;;;;3.88;2.72;;;;;;;;;;5013453;28;20046;-42
2023/03/01 06:06:23;;;;;;;3.25;2.90;;;;;;;;;;5013770;28;20104;-41
2023/03/01 06:08:52;;;;;;;4.80;2.80;;;17.10;51.30;;;;;;5013685;28;20150;-42
2023/03/01 06:11:19;;;;;;;4.13;2.90;;;;;;;;;;5013292;28;20409;-42
2023/03/01 06:13:46;;;;;;;3.45;2.92;;;;;;;;;;5013222;28;20056;-41
2023/03/01 06:16:13;;;;;;;3.80;3.13;;;;;;;;;;5013095;28;20066;-42
2023/03/01 06:18:40;;;;;;;4.25;3.00;;;;;;;;;;5013603;28;20053;-41
2023/03/01 06:21:07;;;;;;;4.57;3.33;;;;;;;;;;5013364;28;20395;-41
2023/03/01 06:23:34;;;;;;;4.45;3.17;;;;;;;;;;5013005;28;20049;-41
2023/03/01 06:26:06;;;;;;;4.32;3.10;;;17.20;48.90;;;;;;5013021;28;20042;-41
2023/03/01 06:28:33;;;;;;;5.10;3.53;;;;;;;;;;5013262;28;20060;-42
2023/03/01 06:31:00;;;;;;;4.13;3.20;;;;;;;;;;5013186;28;20064;-41
2023/03/01 06:33:27;;;;;;;4.95;3.72;;;;;;;;;;5012873;28;20054;-41
2023/03/01 06:35:55;;;;;;;5.45;3.63;;;;;;;;;;5012675;28;20046;-41
2023/03/01 06:38:22;;;;;;;4.95;3.70;;;;;;;;;;5013199;28;20046;-42
2023/03/01 06:40:52;;;;;;;5.15;3.97;;;17.30;48.80;;;;;;5012757;28;20049;-43
2023/03/01 06:43:20;;;;;;;6.35;4.03;;;17.20;51.20;;;;;;5012323;28;20410;-42
2023/03/01 06:45:48;;;;;;;4.82;3.75;;;;;;;;;;5012710;28;20068;-41
2023/03/01 06:48:15;;;;;;;5.35;4.07;;;;;;;;;;5000569;28;20407;-42
2023/03/01 06:50:42;;;;;;;6.07;4.22;;;;;;;;;;4993294;28;20506;-43
2023/03/01 06:53:09;;;;;;;5.72;4.38;;;;;;;;;;4992667;28;20058;-42
2023/03/01 06:55:36;;;;;;;5.80;4.60;;;;;;;;;;4993288;28;20129;-42
2023/03/01 06:58:03;;;;;;;6.85;4.88;;;;;;;;;;5011732;28;20052;-42
2023/03/01 07:00:31;;;;;;;6.15;4.47;;;17.30;50.80;;;;;;5012653;28;20511;-42
2023/03/01 07:02:59;;;;;;;5.70;4.72;;;17.30;50.60;;;;;;5012174;28;20056;-42
2023/03/01 07:05:26;;;;;;;5.07;4.32;;;;;;;;;;5012738;28;20050;-42
2023/03/01 07:07:54;;;;;;;5.68;4.40;;;;;;;;;;5012448;28;20509;-42
2023/03/01 07:10:21;;;;;;;5.97;4.50;;;;;;;;;;5012349;28;20073;-42
2023/03/01 07:12:49;;;;;;;5.85;4.32;;;;;;;;;;5012262;28;20049;-42
2023/03/01 07:15:16;;;;;;;5.45;4.30;;;;;;;;;;5012431;28;20422;-43
2023/03/01 07:17:44;;;;;;;5.53;4.65;;;17.30;50.90;;;;;;5012403;28;20509;-42
2023/03/01 07:20:12;;;;;;;5.93;4.45;;;17.40;50.70;;;;;;5012386;28;20144;-42
2023/03/01 07:22:40;;;;;;;5.25;4.40;;;17.30;50.60;;;;;;5012049;28;20594;-42
2023/03/01 07:25:08;;;;;;;5.40;4.60;;;;;;;;;;5012078;28;20053;-42
2023/03/01 07:27:35;;;;;;;5.95;4.97;;;;;;;;;;5012178;28;20042;-42
2023/03/01 07:30:02;;;;;;;5.72;4.57;;;;;;;;;;5012276;28;20124;-42
2023/03/01 07:32:29;;;;;;;5.13;4.18;;;;;;;;;;5011922;28;20076;-42
2023/03/01 07:34:57;;;;;;;5.82;4.28;;;;;;;;;;5012126;28;20487;-42
2023/03/01 07:37:24;;;;;;;5.00;4.25;;;;;;;;;;5011516;28;20509;-42
2023/03/01 07:39:52;;;;;;;5.28;4.55;;;;;;;;;;5011546;28;20041;-41
2023/03/01 07:42:19;;;;;;;5.15;4.38;;;;;;;;;;5008192;28;20515;-42
2023/03/01 07:44:46;;;;;;;5.85;3.90;;;;;;;;;;5011604;28;20053;-42
2023/03/01 07:47:13;;;;;;;6.45;4.38;;;;;;;;;;5011094;28;20054;-42
2023/03/01 07:49:40;;;;;;;5.50;4.43;;;;;;;;;;5011901;28;20060;-42
2023/03/01 07:52:10;;;;;;;4.28;3.88;;;17.50;48.40;;;;;;5011830;28;20060;-42
2023/03/01 07:54:37;;;;;;;5.20;4.13;;;;;;;;;;5012112;28;20053;-43
2023/03/01 07:57:04;;;;;;;5.38;4.55;;;;;;;;;;5011912;28;20509;-42
2023/03/01 07:59:31;;;;;;;5.05;4.47;;;;;;;;;;5014418;28;20529;-43
2023/03/01 08:01:58;;;;;;;4.60;4.10;;;;;;;;;;5015160;28;20056;-43
2023/03/01 08:04:26;;;;;;;6.57;4.30;;;;;;;;;;5014849;28;20052;-42
2023/03/01 08:06:53;;;;;;;4.70;3.95;;;;;;;;;;5015567;28;20045;-43
2023/03/01 08:09:21;;;;;;;5.10;4.32;;;;;;;;;;5015317;28;20125;-43
2023/03/01 08:11:49;;;;;;;5.78;4.13;;;;;;;;;;5015193;28;20052;-42
2023/03/01 08:14:16;;;;;;;6.50;3.80;;;;;;;;;;5014747;28;20048;-42
2023/03/01 08:16:43;;;;;;;7.60;3.80;;;;;;;;;;5015318;28;20133;-42
2023/03/01 08:19:10;;;;;;;4.03;3.55;;;;;;;;;;5014860;28;20051;-42
2023/03/01 08:21:37;;;;;;;4.30;3.50;;;;;;;;;;5015520;28;20409;-43
2023/03/01 08:24:05;;;;;;;4.78;3.55;;;;;;;;;;5014744;28;20042;-42
2023/03/01 08:26:33;;;;;;;4.13;3.72;;;18.20;49.80;;;;;;5015058;28;20361;-43
2023/03/01 08:29:00;;;;;;;4.35;3.70;;;;;;;;;;5014800;28;20045;-44
2023/03/01 08:31:29;;;;;;;3.80;3.40;;;18.20;47.70;;;;;;5014535;28;20042;-43
2023/03/01 08:33:58;;;;;;;5.22;3.50;;;18.40;49.20;;;;;;5014972;28;20072;-42
2023/03/01 08:36:25;;;;;;;3.92;3.47;;;;;;;;;;5013982;28;20046;-44
2023/03/01 08:38:52;;;;;;;3.78;3.40;;;;;;;;;;5014317;28;20042;-43
2023/03/01 08:41:19;;;;;;;4.60;3.67;;;;;;;;;;5014028;28;20081;-42
2023/03/01 08:43:47;;;;;;;4.55;3.60;;;18.50;47.80;;;;;;5014245;28;20042;-42
2023/03/01 08:46:15;;;;;;;3.65;3.22;;;;;;;;;;5014564;28;20364;-43
2023/03/01 08:48:43;;;;;;;3.95;3.28;;;;;;;;;;5014594;28;20048;-42
2023/03/01 08:51:10;;;;;;;3.58;3.17;;;;;;;;;;5014004;28;20053;-41
2023/03/01 08:53:37;;;;;;;4.03;3.30;;;;;;;;;;5013758;28;20042;-42
2023/03/01 08:56:04;;;;;;;4.10;3.25;;;;;;;;;;5014543;28;20042;-42
2023/03/01 08:58:31;;;;;;;3.22;2.92;;;;;;;;;;5014194;28;20501;-43
2023/03/01 09:01:00;;;;;;;3.55;3.25;;;;;;;;;;5014479;28;20046;-42
2023/03/01 09:03:27;;;;;;;3.65;3.15;;;18.60;74.80;;;;;;5014261;28;20050;-42
2023/03/01 09:05:54;;;;;;;3.10;2.80;;;;;;;;;;5014016;28;20046;-44
2023/03/01 09:08:21;;;;;;;5.15;3.17;;;;;;;;;;5014278;28;20038;-43
2023/03/01 09:10:48;;;;;;;4.95;3.55;;;;;;;;;;5013559;28;20046;-42
2023/03/01 09:13:15;;;;;;;3.50;3.03;;;;;;;;;;5013778;28;20405;-43
2023/03/01 09:15:42;;;;;;;4.55;3.22;;;;;;;;;;5014011;28;20476;-43
2023/03/01 09:18:10;;;;;;;3.50;3.15;;;;;;;;;;5014131;28;20056;-44
2023/03/01 09:20:37;;;;;;;3.47;3.05;;;19.00;74.70;;;;;;5013905;28;20052;-42
2023/03/01 09:23:04;;;;;;;4.22;3.20;;;20.30;57.80;;;;;;5013609;28;20045;-42
2023/03/01 09:25:31;;;;;;;3.83;3.40;;;;;;;;;;5013691;28;20054;-42
2023/03/01 09:27:57;;;;;;;3.30;2.92;;;18.80;74.10;;;;;;5013854;28;20056;-42
2023/03/01 09:30:25;;;;;;;5.15;3.38;;;20.00;75.00;;;;;;5013610;28;20490;-44
2023/03/01 09:32:52;;;;;;;4.88;3.40;;;19.30;74.20;;;;;;5012748;28;20560;-42
2023/03/01 09:35:22;;;;;;;3.55;3.10;;;19.30;45.70;;;;;;5013137;28;20057;-42
2023/03/01 09:37:49;;;;;;;3.85;3.40;;;;;;;;;;5013711;28;20052;-43
2023/03/01 09:40:17;;;;;;;4.38;3.60;;;;;;;;;;5013856;28;20056;-43
2023/03/01 09:42:54;;;;;;;4.07;3.47;;;19.50;45.50;;;;;;5012681;28;20392;-42
2023/03/01 09:45:26;;;;;;;3.90;3.15;;;19.50;45.70;;;;;;5013767;28;20060;-41
2023/03/01 09:47:53;;;;;;;3.67;3.03;;;;;;;;;;5011781;28;20046;-42
2023/03/01 09:50:22;;;;;;;3.58;3.13;;;;;;;;;;5013512;28;20054;-43
2023/03/01 09:52:51;;;;;;;3.33;3.03;;;;;;;;;;5010701;28;20125;-42
2023/03/01 09:55:22;;;;;;;3.35;2.90;;;19.60;45.70;;;;;;5013339;28;20049;-44
2023/03/01 09:57:50;;;;;;;3.97;3.30;;;19.50;44.90;;;;;;5011151;28;20041;-44
2023/03/01 10:00:22;;;;;;;3.60;3.10;;;;;;;;;;5013898;28;20072;-43
2023/03/01 10:02:50;;;;;;;5.03;3.08;;;;;;;;;;5012910;28;20413;-42
2023/03/01 10:05:35;;;;;;;3.63;2.95;;;19.70;45.80;;;;;;5013018;28;20402;-42
2023/03/01 10:08:04;;;;;;;3.47;3.15;;;;;;;;;;5010770;28;20038;-43
2023/03/01 10:10:33;;;;;;;3.97;3.20;;;;;;;;;;5013065;28;20056;-41
2023/03/01 10:13:00;;;;;;;3.80;3.40;;;19.70;45.40;;;;;;5012814;28;20422;-41
2023/03/01 10:15:31;;;;;;;3.80;3.33;;;;;;;;;;5013058;28;20093;-43
2023/03/01 10:17:59;;;;;;;3.38;3.03;;;;;;;;;;5013608;28;20046;-42
2023/03/01 10:20:30;;;;;;;3.85;2.97;;;19.70;46.10;;;;;;5013391;28;20487;-43
2023/03/01 10:22:58;;;;;;;4.03;3.50;;;;;;;;;;5012749;28;20054;-42
2023/03/01 10:25:32;;;;;;;4.28;3.20;;;19.70;44.10;;;;;;5012634;28;20052;-42
2023/03/01 10:28:01;;;;;;;7.55;3.50;;;;;;;;;;5012659;28;20046;-43
2023/03/01 10:30:31;;;;;;;4.63;3.55;;;;;;;;;;5012565;28;20062;-42
2023/03/01 10:32:58;;;;;;;5.55;3.70;;;;;;;;;;5012154;28;20479;-43
2023/03/01 10:35:27;;;;;;;5.15;3.60;;;19.80;46.30;;;;;;5012985;28;20541;-43
2023/03/01 10:37:58;;;;;;;5.18;3.72;;;19.80;44.30;;;;;;5012474;28;20045;-44
2023/03/01 10:40:25;;;;;;;4.72;3.80;;;;;;;;;;5012840;28;20046;-42
2023/03/01 10:42:52;;;;;;;4.65;3.55;;;;;;;;;;5012805;28;20046;-44
2023/03/01 10:45:30;;;;;;;5.25;4.07;;;19.80;45.80;;;;;;5012785;28;20141;-41
2023/03/01 10:48:07;;;;;;;9.02;4.18;;;;;;;;;;5009755;28;20133;-43
2023/03/01 10:50:37;;;;;;;7.78;4.05;;;19.80;44.70;;;;;;5012454;28;20046;-45
2023/03/01 10:53:04;;;;;;;5.55;3.83;;;19.10;52.50;;;;;;5012496;28;20052;-42
2023/03/01 10:55:34;;;;;;;9.90;4.13;;;19.90;47.10;;;;;;5010476;28;20042;-40
2023/03/01 10:58:07;;;;;;;6.63;3.95;;;;;;;;;;5011346;28;20482;-41
2023/03/01 11:00:35;;;;;;;8.00;3.83;;;;;;;;;;5012118;28;20045;-40
2023/03/01 11:03:11;;;;;;;4.63;3.55;;;20.00;47.70;;;;;;5026861;28;20140;-40
2023/03/01 11:06:10;;;;;;;8.73;3.50;;;20.00;46.40;;;;;;5012328;28;20056;-40
2023/03/01 11:08:39;;;;;;;7.88;3.65;;;20.10;46.30;;;;;;4970794;28;20047;-42
2023/03/01 11:11:08;;;;;;;5.38;3.72;;;;;;;;;;5001933;28;20054;-40
2023/03/01 11:13:35;;;;;;;4.75;3.40;;;;;;;;;;5011735;28;20080;-42
2023/03/01 11:16:03;;;;;;;4.60;3.30;;;20.20;45.50;;;;;;5011774;28;20575;-45
2023/03/01 11:18:30;;;;;;;3.83;2.85;;;;;;;;;;5011457;28;20052;-42
2023/03/01 11:20:59;;;;;;;3.50;2.95;;;20.30;46.40;;;;;;5011504;28;20056;-44
2023/03/01 11:23:26;;;;;;;3.85;3.10;;;;;;;;;;5011584;28;20592;-41
2023/03/01 11:25:55;;;;;;;3.17;2.83;;;20.30;46.10;;;;;;5011231;28;20054;-44
2023/03/01 11:28:22;;;;;;;4.20;3.00;;;;;;;;;;5011656;28;20041;-43
2023/03/01 11:30:53;;;;;;;4.18;2.75;;;20.50;46.90;;;;;;5011785;28;20099;-45
2023/03/01 11:33:21;;;;;;;5.47;2.67;;;;;;;;;;5002618;28;20100;-45
2023/03/01 11:35:49;;;;;;;6.50;2.88;;;;;;;;;;5011252;28;20132;-44
2023/03/01 11:38:23;;;;;;;3.53;2.70;;;;;;;;;;5011293;28;20050;-41
2023/03/01 11:40:52;;;;;;;3.10;2.58;;;;;;;;;;5009317;28;20046;-41
2023/03/01 11:43:23;;;;;;;3.95;2.78;;;20.50;45.90;;;;;;5010757;28;20077;-40
2023/03/01 11:45:54;;;;;;;3.72;2.60;;;;;;;;;;5011212;28;20056;-40
2023/03/01 11:48:31;;;;;;;4.95;2.75;;;;;;;;;;5010778;28;20048;-40
2023/03/01 11:50:58;;;;;;;4.18;2.67;;;;;;;;;;5010334;28;20050;-41
2023/03/01 11:53:40;;;;;;;3.70;2.70;;;;;;;;;;5011216;28;20517;-43
2023/03/01 11:56:11;;;;;;;2.72;2.20;;;;;;;;;;5011479;28;20056;-41
2023/03/01 11:58:53;;;;;;;5.70;2.45;;;20.20;46.00;;;;;;5011744;28;20041;-41
2023/03/01 12:01:24;;;;;;;3.08;2.53;;;;;;;;;;5010296;28;20060;-43
2023/03/01 12:04:02;;;;;;;4.32;2.40;;;;;;;;;;5008754;28;20053;-43
2023/03/01 12:06:46;;;;;;;3.20;2.33;;;20.10;46.00;;;;;;5008985;28;20403;-43
2023/03/01 12:09:18;;;;;;;3.60;2.35;;;;;;;;;;5009561;28;20052;-42
2023/03/01 12:11:57;;;;;;;2.72;2.38;;;20.20;44.70;;;;;;5011014;28;20054;-41
2023/03/01 12:14:34;;;;;;;2.80;2.42;;;;;;;;;;5011100;28;20050;-41
2023/03/01 12:17:13;;;;;;;3.10;2.60;;;20.00;44.40;;;;;;5011266;28;20513;-41
2023/03/01 12:20:03;;;;;;;2.83;2.25;;;19.90;46.30;;;;;;5011282;28;20056;-41
2023/03/01 12:22:31;;;;;;;2.90;2.03;;;20.00;46.40;;;;;;5008072;28;20077;-40
2023/03/01 12:25:13;;;;;;;2.78;2.10;;;;;;;;;;5011222;28;20049;-43
2023/03/01 12:27:55;;;;;;;2.58;2.20;;;19.90;46.40;;;;;;5008940;28;20042;-43
2023/03/01 12:30:26;;;;;;;2.50;2.10;;;;;;;;;;5010231;28;20433;-41
2023/03/01 12:32:59;;;;;;;2.78;2.28;;;19.70;46.70;;;;;;5009477;28;20054;-41
2023/03/01 12:35:32;;;;;;;3.22;2.05;;;;;;;;;;5011085;28;20056;-43
2023/03/01 12:38:05;;;;;;;2.60;1.80;;;19.60;46.80;;;;;;5010768;28;20042;-41
2023/03/01 12:40:39;;;;;;;2.35;1.92;;;;;;;;;;5008763;28;20050;-43
2023/03/01 12:43:16;;;;;;;3.60;1.90;;;19.60;46.70;;;;;;5010687;28;20049;-42
2023/03/01 12:45:49;;;;;;;3.72;2.20;;;;;;;;;;5011708;28;20129;-42
2023/03/01 12:48:25;;;;;;;2.95;2.10;;;19.50;46.80;;;;;;5015101;28;20050;-42
2023/03/01 12:50:53;;;;;;;3.63;2.20;;;;;;;;;;5014542;28;20053;-43
2023/03/01 12:53:24;;;;;;;4.13;2.55;;;19.40;48.30;;;;;;5014393;28;20056;-32
2023/03/01 12:55:51;;;;;;;3.20;2.10;;;;;;;;;;4996256;28;20050;-30
2023/03/01 12:58:25;;;;;;;3.70;2.50;;;19.50;45.00;;;;;;5014260;28;20046;-33
2023/03/01 13:01:00;;;;;;;2.80;2.17;;;19.60;44.70;;;;;;5007237;28;20061;-32
2023/03/01 13:03:30;;;;;;;2.47;2.03;;;19.50;44.60;;;;;;5013449;28;20064;-33
2023/03/01 13:06:01;;;;;;;2.20;2.00;;;;;;;;;;4995627;28;20062;-34
2023/03/01 13:08:29;;;;;;;4.45;2.30;;;;;;;;;;4995111;28;20056;-31
2023/03/01 13:10:57;;;;;;;2.75;2.17;;;;;;;;;;5014835;28;20073;-32
2023/03/01 13:13:25;;;;;;;4.15;2.28;;;19.60;43.90;;;;;;5014311;28;20458;-32
2023/03/01 13:15:52;;;;;;;3.55;2.30;;;;;;;;;;4994799;28;20414;-31
2023/03/01 13:18:30;;;;;;;2.58;2.08;;;;;;;;;;4999472;28;20056;-31
2023/03/01 13:20:57;;;;;;;2.22;1.90;;;19.20;67.80;;;;;;4998518;28;20049;-32
2023/03/01 13:23:28;;;;;;;3.05;2.20;;;19.60;44.60;;;;;;5009009;28;20054;-33
2023/03/01 13:26:08;;;;;;;3.88;2.53;;;19.50;42.60;;;;;;5008029;28;20112;-31
2023/03/01 13:28:56;;;;;;;3.20;2.00;;;19.50;42.20;;;;;;5014356;28;20057;-30
2023/03/01 13:31:42;;;;;;;2.78;2.10;;;;;;;;;;4995341;28;20491;-31
2023/03/01 13:34:12;;;;;;;3.13;2.10;;;;;;;;;;4994719;28;20054;-31
2023/03/01 13:36:49;;;;;;;2.78;2.00;;;;;;;;;;5001247;28;20060;-31
2023/03/01 13:39:31;;;;;;;3.50;2.22;;;;;;;;;;5013067;28;20414;-33
2023/03/01 13:41:59;;;;;;;2.75;2.08;;;;;;;;;;5014261;28;20410;-32
2023/03/01 13:44:32;;;;;;;2.53;2.00;;;19.40;43.50;;;;;;5001566;28;20495;-34
2023/03/01 13:47:00;;;;;;;2.83;2.20;;;19.90;51.10;;;;;;5003610;28;20484;-32
2023/03/01 13:49:28;;;;;;;3.70;2.28;;;19.40;47.10;;;;;;5001210;28;20043;-31
2023/03/01 13:51:55;;;;;;;4.10;2.45;;;;;;;;;;4999578;28;20137;-30
2023/03/01 13:54:26;;;;;;;3.75;1.90;;;19.40;43.80;;;;;;5005955;28;20385;-31
2023/03/01 13:56:53;;;;;;;3.25;2.20;;;;;;;;;;5002000;28;20046;-30
2023/03/01 13:59:21;;;;;;;2.80;2.00;;;19.60;43.80;;;;;;5000398;28;20049;-33
2023/03/01 14:01:54;;;;;;;3.40;2.30;;;19.40;44.00;;;;;;5001169;28;20046;-32
2023/03/01 14:04:22;;;;;;;2.30;1.75;;;;;;;;;;5001742;28;20042;-33
2023/03/01 14:06:48;;;;;;;5.28;2.25;;;19.40;72.30;;;;;;5004287;28;20046;-33
2023/03/01 14:09:17;;;;;;;2.95;2.20;;;19.50;44.00;;;;;;5013158;28;20392;-32
2023/03/01 14:11:51;;;;;;;2.47;1.90;;;;;;;;;;5013009;28;20517;-31
2023/03/01 14:14:38;;;;;;;3.17;2.10;;;;;;;;;;5013176;28;20050;-33
2023/03/01 14:17:10;;;;;;;2.83;1.90;;;;;;;;;;5001761;28;20061;-35
2023/03/01 14:19:36;;;;;;;5.97;1.95;;;19.50;72.40;;;;;;5002581;28;20130;-31
2023/03/01 14:22:06;;;;;;;2.40;1.90;;;;;;;;;;5002405;28;20399;-29